Time;durP1;ratioP1;P1;durP2;ratioP2;P2;SDS_P1;SDS_P2;PMS_P1;PMS_P2;Temp;Humidity;BMP_temperature;BMP_pressure;BME280_temperature;BME280_humidity;BME280_pressure;Samples;Min_cycle;Max_cycle;Signal;HPM_P1;HPM_P2
2022/12/19 00:00:23;;;;;;;119.57;40.47;;;-9.50;99.90;;;;;;10313333;28;20176;-81
2022/12/19 00:05:23;;;;;;;128.73;45.03;;;-9.40;99.90;;;;;;10314462;28;20133;-82
2022/12/19 00:10:24;;;;;;;114.17;42.03;;;-9.40;99.90;;;;;;10315295;28;20031;-83
2022/12/19 00:15:24;;;;;;;112.80;40.63;;;-9.40;99.90;;;;;;10315172;28;20113;-82
2022/12/19 00:20:25;;;;;;;100.83;37.07;;;-9.40;99.90;;;;;;10317183;28;20117;-82
2022/12/19 00:25:26;;;;;;;101.13;35.77;;;-9.40;99.90;;;;;;10311174;28;20073;-83
2022/12/19 00:30:26;;;;;;;97.77;35.43;;;-9.40;99.90;;;;;;10312513;28;20793;-81
2022/12/19 00:35:27;;;;;;;104.20;37.37;;;-9.30;99.90;;;;;;10315495;28;20038;-83
2022/12/19 00:40:27;;;;;;;113.37;40.20;;;-9.20;99.90;;;;;;10309568;28;20512;-82
2022/12/19 00:45:28;;;;;;;137.67;49.33;;;-9.20;99.90;;;;;;10312419;28;20121;-82
2022/12/19 00:50:31;;;;;;;116.40;42.93;;;-9.30;99.90;;;;;;10343023;28;20393;-80
2022/12/19 00:55:31;;;;;;;100.83;37.43;;;-9.30;99.90;;;;;;10318088;28;20066;-81
2022/12/19 01:00:32;;;;;;;100.00;35.90;;;-9.40;99.90;;;;;;10314015;28;20114;-83
2022/12/19 01:05:33;;;;;;;103.13;37.10;;;-9.60;99.90;;;;;;10297875;28;20125;-80
2022/12/19 01:10:33;;;;;;;113.33;39.67;;;-9.80;99.90;;;;;;10287354;28;20417;-81
2022/12/19 01:15:37;;;;;;;130.13;47.10;;;-9.90;99.90;;;;;;10291999;28;20096;-83
2022/12/19 01:20:43;;;;;;;121.03;44.60;;;-10.00;99.90;;;;;;10322598;28;20498;-83
2022/12/19 01:25:51;;;;;;;124.53;43.00;;;-10.10;99.90;;;;;;10295085;28;20034;-81
2022/12/19 01:30:51;;;;;;;109.20;40.80;;;-10.10;99.90;;;;;;10305204;28;20038;-83
2022/12/19 01:35:52;;;;;;;116.30;39.37;;;-10.00;99.90;;;;;;10305425;28;20061;-83
2022/12/19 01:40:56;;;;;;;102.47;37.70;;;-9.90;99.90;;;;;;10309764;28;20061;-83
2022/12/19 01:46:02;;;;;;;96.80;34.72;;;-9.90;99.90;;;;;;10321604;28;20034;-82
2022/12/19 01:51:17;;;;;;;99.47;39.03;;;-9.90;99.90;;;;;;10306110;28;20033;-82
2022/12/19 01:56:28;;;;;;;97.67;35.43;;;-9.90;99.90;;;;;;10307269;28;20037;-82
2022/12/19 02:01:29;;;;;;;98.30;34.47;;;-9.80;99.90;;;;;;10311452;28;20049;-81
2022/12/19 02:06:33;;;;;;;88.17;34.60;;;-9.90;99.90;;;;;;10300172;28;20033;-82
2022/12/19 02:11:34;;;;;;;93.63;33.93;;;-9.90;99.90;;;;;;10316900;28;20037;-83
2022/12/19 02:16:54;;;;;;;95.00;33.27;;;-10.00;99.90;;;;;;10317324;28;20037;-83
2022/12/19 02:22:10;;;;;;;102.43;38.23;;;-10.00;99.90;;;;;;10317375;28;20034;-81
2022/12/19 02:27:22;;;;;;;106.37;38.83;;;-10.00;99.90;;;;;;10322405;28;20073;-82
2022/12/19 02:32:28;;;;;;;91.63;34.87;;;-10.00;99.90;;;;;;10314359;28;20036;-82
2022/12/19 02:37:33;;;;;;;93.30;35.87;;;-10.00;99.90;;;;;;10311174;28;20030;-81
2022/12/19 02:42:41;;;;;;;85.37;31.70;;;-10.00;99.90;;;;;;10318796;28;20077;-82
2022/12/19 02:47:43;;;;;;;82.03;29.87;;;-10.00;99.90;;;;;;10313236;28;20023;-81
2022/12/19 02:52:46;;;;;;;86.20;31.40;;;-10.00;99.90;;;;;;10313891;28;20034;-82
2022/12/19 02:57:56;;;;;;;90.73;32.40;;;-10.00;99.90;;;;;;10318225;28;20069;-83
2022/12/19 03:03:17;;;;;;;88.17;32.57;;;-9.90;99.90;;;;;;10308762;28;20046;-81
2022/12/19 03:08:25;;;;;;;98.80;34.10;;;-9.90;99.90;;;;;;10319156;28;20402;-83
2022/12/19 03:13:32;;;;;;;97.67;32.80;;;-10.00;99.90;;;;;;10318119;28;20577;-82
2022/12/19 03:18:33;;;;;;;84.07;30.90;;;-9.80;99.90;;;;;;10310743;28;20096;-82
2022/12/19 03:23:34;;;;;;;83.93;32.40;;;-9.80;99.90;;;;;;10346926;28;20042;-81
2022/12/19 03:28:41;;;;;;;134.03;49.03;;;-9.70;99.90;;;;;;10319470;28;20235;-82
2022/12/19 03:33:44;;;;;;;104.40;38.07;;;-9.70;99.90;;;;;;10311089;28;20100;-82
2022/12/19 03:38:46;;;;;;;98.67;33.53;;;-9.70;99.90;;;;;;10310043;28;20082;-83
2022/12/19 03:43:47;;;;;;;92.90;33.97;;;-9.60;99.90;;;;;;10313979;28;20124;-83
2022/12/19 03:48:50;;;;;;;82.17;29.70;;;-9.70;99.90;;;;;;10307099;28;20065;-84
2022/12/19 03:54:04;;;;;;;77.83;28.43;;;-9.80;99.90;;;;;;10318500;28;20042;-81
2022/12/19 03:59:17;;;;;;;90.37;34.57;;;-9.80;99.90;;;;;;10315194;28;20038;-85
2022/12/19 04:04:19;;;;;;;89.47;32.13;;;-9.90;99.90;;;;;;10328177;28;20549;-85
2022/12/19 04:09:22;;;;;;;80.30;31.43;;;-9.90;99.90;;;;;;10318679;28;20081;-86
2022/12/19 04:14:31;;;;;;;104.80;37.97;;;-9.80;99.90;;;;;;10318342;28;20022;-84
2022/12/19 04:19:46;;;;;;;175.23;65.43;;;-9.90;99.90;;;;;;10312725;28;20113;-83
2022/12/19 04:24:49;;;;;;;123.15;45.35;;;-9.80;99.90;;;;;;10318908;28;20060;-83
2022/12/19 04:29:56;;;;;;;85.17;29.03;;;-9.80;99.90;;;;;;10318442;28;20030;-84
2022/12/19 04:34:59;;;;;;;74.73;25.07;;;-9.90;99.90;;;;;;10318216;28;20041;-83
2022/12/19 04:40:00;;;;;;;76.57;26.70;;;-9.90;99.90;;;;;;10322752;28;20081;-84
2022/12/19 04:45:01;;;;;;;90.00;35.47;;;-9.90;99.90;;;;;;10325352;28;20042;-83
2022/12/19 04:50:02;;;;;;;87.63;31.40;;;-10.00;99.90;;;;;;10354086;28;20657;-83
2022/12/19 04:55:03;;;;;;;77.00;28.90;;;-10.10;99.90;;;;;;10324810;28;20033;-82
2022/12/19 05:00:05;;;;;;;80.80;28.70;;;-10.10;99.90;;;;;;10321026;28;20046;-84
2022/12/19 05:05:06;;;;;;;82.03;31.33;;;-10.10;99.90;;;;;;10321051;28;20042;-86
2022/12/19 05:10:07;;;;;;;81.53;29.73;;;-10.20;99.90;;;;;;10323746;28;20039;-85
2022/12/19 05:15:08;;;;;;;82.63;30.30;;;-10.20;99.90;;;;;;10323326;28;20026;-85
2022/12/19 05:20:09;;;;;;;96.50;36.80;;;-10.30;99.90;;;;;;10323207;28;20030;-85
2022/12/19 05:25:10;;;;;;;103.90;36.37;;;-10.30;99.90;;;;;;10323674;28;20424;-84
2022/12/19 05:30:11;;;;;;;125.40;39.33;;;-10.40;99.90;;;;;;10324800;28;20076;-84
2022/12/19 05:35:11;;;;;;;143.27;47.87;;;-10.50;99.90;;;;;;10309995;28;20027;-84
2022/12/19 05:40:12;;;;;;;146.53;51.67;;;-10.60;99.90;;;;;;10324398;28;20093;-84
2022/12/19 05:45:12;;;;;;;155.97;49.00;;;-10.80;99.90;;;;;;10324363;28;20371;-84
2022/12/19 05:50:14;;;;;;;143.50;50.73;;;-10.90;99.90;;;;;;10323428;28;20463;-84
2022/12/19 05:55:14;;;;;;;132.03;50.87;;;-11.00;99.90;;;;;;10323679;28;20026;-84
2022/12/19 06:00:15;;;;;;;222.03;75.23;;;-11.10;99.90;;;;;;10324566;28;20084;-84
2022/12/19 06:05:16;;;;;;;192.33;70.83;;;-11.20;99.90;;;;;;10322785;28;20053;-84
2022/12/19 06:10:16;;;;;;;165.87;60.53;;;-11.20;99.90;;;;;;10323982;28;20042;-84
2022/12/19 06:15:17;;;;;;;154.00;53.60;;;-11.20;99.90;;;;;;10323963;28;20034;-84
2022/12/19 06:20:17;;;;;;;131.50;45.30;;;-11.20;99.90;;;;;;10322881;28;20030;-84
2022/12/19 06:25:18;;;;;;;111.27;36.23;;;-11.10;99.90;;;;;;10354131;28;20034;-84
2022/12/19 06:30:19;;;;;;;104.73;37.93;;;-11.10;99.90;;;;;;10322987;28;20035;-84
2022/12/19 06:35:19;;;;;;;90.03;35.20;;;-11.00;99.90;;;;;;10323260;28;20034;-84
2022/12/19 06:42:21;;;;;;;93.13;34.73;;;-11.00;99.90;;;;;;10322207;28;20123;-84
2022/12/19 06:45:40;;;;;;;96.33;34.43;;;-10.90;99.90;;;;;;10321831;28;20038;-84
2022/12/19 06:50:41;;;;;;;105.13;34.33;;;-10.90;99.90;;;;;;10322260;28;20034;-84
2022/12/19 06:55:41;;;;;;;97.70;38.47;;;-10.90;99.90;;;;;;10322562;28;20034;-83
2022/12/19 07:00:42;;;;;;;114.03;42.73;;;-10.90;99.90;;;;;;10320336;28;20026;-84
2022/12/19 07:05:42;;;;;;;128.60;45.67;;;-10.80;99.90;;;;;;10319510;28;20489;-84
2022/12/19 07:10:43;;;;;;;138.20;53.80;;;-10.80;99.90;;;;;;10321012;28;20031;-84
2022/12/19 07:15:43;;;;;;;111.93;41.73;;;-10.70;99.90;;;;;;10321040;28;20482;-84
2022/12/19 07:20:44;;;;;;;119.03;48.30;;;-10.60;99.90;;;;;;10320511;28;20027;-84
2022/12/19 07:25:45;;;;;;;134.00;48.73;;;-10.60;99.90;;;;;;10320543;28;20030;-84
2022/12/19 07:30:45;;;;;;;160.57;58.57;;;-10.50;99.90;;;;;;10320310;28;20092;-83
2022/12/19 07:35:46;;;;;;;195.57;72.13;;;-10.40;99.90;;;;;;10320169;28;21054;-84
2022/12/19 07:40:47;;;;;;;276.77;94.23;;;-10.20;99.90;;;;;;10320580;28;20129;-84
2022/12/19 07:45:53;;;;;;;160.47;52.90;;;-10.00;99.90;;;;;;10319968;28;20026;-84
2022/12/19 07:50:54;;;;;;;138.37;46.73;;;-9.80;99.90;;;;;;10318986;28;20457;-83
2022/12/19 07:55:57;;;;;;;179.93;63.63;;;-9.60;99.90;;;;;;10320891;28;20073;-84
2022/12/19 08:01:02;;;;;;;179.57;66.03;;;-9.40;99.90;;;;;;10319799;28;20489;-84
2022/12/19 08:06:04;;;;;;;148.33;58.17;;;-9.20;99.90;;;;;;10319877;28;20031;-84
2022/12/19 08:11:10;;;;;;;169.77;68.53;;;-9.00;99.90;;;;;;10351348;28;20269;-84
2022/12/19 08:16:11;;;;;;;166.80;66.40;;;-8.70;99.90;;;;;;10324879;28;20053;-84
2022/12/19 08:21:12;;;;;;;208.87;84.93;;;-8.50;99.90;;;;;;10327571;28;20038;-84
2022/12/19 08:26:15;;;;;;;198.40;84.40;;;-8.30;99.90;;;;;;10327963;28;20030;-84
2022/12/19 08:31:17;;;;;;;217.50;86.97;;;-8.00;99.90;;;;;;10327652;28;20027;-84
2022/12/19 08:36:18;;;;;;;165.27;61.27;;;-7.70;99.90;;;;;;10327166;28;20034;-84
2022/12/19 08:41:19;;;;;;;139.40;58.53;;;-7.50;99.90;;;;;;10358478;28;20125;-84
2022/12/19 08:46:21;;;;;;;164.23;62.93;;;-7.10;99.90;;;;;;10358125;28;20024;-84
2022/12/19 08:51:21;;;;;;;157.83;61.97;;;-6.90;99.90;;;;;;10327077;28;20462;-84
2022/12/19 08:56:22;;;;;;;195.90;70.60;;;-6.70;99.90;;;;;;10325241;28;20034;-84
2022/12/19 09:01:24;;;;;;;200.43;75.50;;;-6.40;99.90;;;;;;10326660;28;20150;-84
2022/12/19 09:06:25;;;;;;;194.90;76.30;;;-6.10;99.90;;;;;;10326656;28;20026;-84
2022/12/19 09:11:26;;;;;;;142.57;59.97;;;-5.80;99.90;;;;;;10324549;28;20026;-84
2022/12/19 09:16:27;;;;;;;117.07;49.27;;;-5.50;99.90;;;;;;10326165;28;20053;-84
2022/12/19 09:21:28;;;;;;;148.83;63.20;;;-5.30;99.90;;;;;;10325588;28;20549;-85
2022/12/19 09:26:28;;;;;;;118.30;50.47;;;-5.00;99.90;;;;;;10323581;28;20121;-84
2022/12/19 09:31:29;;;;;;;155.13;67.17;;;-4.70;99.90;;;;;;10356766;28;20056;-86
2022/12/19 09:36:30;;;;;;;170.33;69.23;;;-4.30;99.90;;;;;;10324014;28;20376;-86
2022/12/19 09:41:56;;;;;;;149.90;67.87;;;-4.00;99.90;;;;;;10355764;28;20058;-85
2022/12/19 09:47:04;;;;;;;150.53;64.13;;;-3.90;99.90;;;;;;10324586;28;20394;-85
2022/12/19 09:52:25;;;;;;;142.80;65.50;;;-3.70;99.90;;;;;;10313460;28;20804;-84
2022/12/19 09:57:35;;;;;;;152.23;67.10;;;-3.70;99.90;;;;;;10323267;28;20031;-85
2022/12/19 10:02:50;;;;;;;148.20;65.30;;;-3.80;99.90;;;;;;10323749;28;20030;-84
2022/12/19 10:07:51;;;;;;;128.87;54.23;;;-3.70;99.90;;;;;;10323896;28;20034;-85
2022/12/19 10:13:17;;;;;;;135.17;59.57;;;-3.30;99.90;;;;;;10323353;28;20026;-85
2022/12/19 10:18:32;;;;;;;128.35;59.05;;;-3.00;99.90;;;;;;10354374;28;20533;-85
2022/12/19 10:23:54;;;;;;;129.57;58.93;;;-2.90;99.90;;;;;;10321549;28;20092;-85
2022/12/19 10:29:37;;;;;;;127.20;54.93;;;-2.90;99.90;;;;;;10322441;28;20041;-84
2022/12/19 10:34:43;;;;;;;129.87;59.40;;;-2.70;99.90;;;;;;10353388;28;20023;-86
2022/12/19 10:40:12;;;;;;;119.53;51.22;;;-2.50;99.90;;;;;;10322195;28;20054;-84
2022/12/19 10:45:17;;;;;;;104.83;44.20;;;-2.40;99.90;;;;;;10310879;28;20046;-84
2022/12/19 10:50:24;;;;;;;105.55;48.30;;;-2.40;99.90;;;;;;10322407;28;20031;-84
2022/12/19 10:55:47;;;;;;;102.87;48.23;;;-2.30;99.90;;;;;;10319985;28;20117;-84
2022/12/19 11:01:00;;;;;;;175.40;72.57;;;-2.20;99.90;;;;;;10321194;28;20093;-84
2022/12/19 11:06:02;;;;;;;259.33;102.33;;;-2.10;99.90;;;;;;10320534;28;20038;-84
2022/12/19 11:11:03;;;;;;;174.70;65.30;;;-2.10;99.90;;;;;;10321182;28;20041;-83
2022/12/19 11:16:05;;;;;;;215.43;81.87;;;-1.90;99.90;;;;;;10319424;28;20686;-84
2022/12/19 11:21:12;;;;;;;284.80;97.87;;;-1.90;99.90;;;;;;10320866;28;20113;-84
2022/12/19 11:26:35;;;;;;;363.33;124.67;;;-1.90;99.90;;;;;;10319456;28;20034;-84
2022/12/19 11:31:36;;;;;;;334.30;112.63;;;-1.80;99.90;;;;;;10320554;28;20041;-84
2022/12/19 11:36:57;;;;;;;305.73;99.77;;;-1.70;99.90;;;;;;10319769;28;20044;-85
2022/12/19 11:42:24;;;;;;;189.77;72.87;;;-1.70;99.90;;;;;;10308807;28;20054;-84
2022/12/19 11:47:31;;;;;;;137.67;58.23;;;-1.60;99.90;;;;;;10318901;28;20026;-84
2022/12/19 11:52:51;;;;;;;241.63;113.33;;;-1.40;99.90;;;;;;10318592;28;20378;-84
2022/12/19 11:57:53;;;;;;;174.33;85.63;;;-1.30;99.90;;;;;;10351250;28;20031;-84
2022/12/19 12:03:13;;;;;;;175.33;78.23;;;-1.20;99.90;;;;;;10320250;28;20038;-84
2022/12/19 12:08:33;;;;;;;129.70;63.93;;;-1.20;99.90;;;;;;10319897;28;20517;-83
2022/12/19 12:13:45;;;;;;;142.17;61.27;;;-1.20;99.90;;;;;;10350914;28;20474;-84
2022/12/19 12:19:01;;;;;;;161.40;78.27;;;-1.20;99.90;;;;;;10317528;28;20034;-82
2022/12/19 12:24:05;;;;;;;;;;;-1.20;99.90;;;;;;10318147;28;20038;-84
2022/12/19 12:29:14;;;;;;;132.83;62.83;;;-1.20;99.90;;;;;;10319079;28;19939;-84
2022/12/19 12:34:34;;;;;;;153.63;72.70;;;-1.30;99.90;;;;;;10319621;28;20041;-83
2022/12/19 12:40:01;;;;;;;120.53;56.23;;;-1.30;99.90;;;;;;10350093;28;20142;-86
2022/12/19 12:45:19;;;;;;;149.10;67.63;;;-1.30;99.90;;;;;;10307550;28;20092;-84
2022/12/19 12:50:23;;;;;;;141.03;65.40;;;-1.30;99.90;;;;;;10318880;28;20022;-84
2022/12/19 12:55:29;;;;;;;129.37;65.73;;;-1.20;99.90;;;;;;10318839;28;20058;-84
2022/12/19 13:00:32;;;;;;;137.95;64.25;;;-1.30;99.90;;;;;;10322014;28;20023;-84
2022/12/19 13:05:49;;;;;;;132.97;60.30;;;-1.40;99.90;;;;;;10325906;28;20694;-83
2022/12/19 13:10:59;;;;;;;134.27;60.20;;;-1.50;99.90;;;;;;10325076;28;20422;-84
2022/12/19 13:16:38;;;;;;;222.40;110.87;;;-1.60;99.90;;;;;;10357206;28;20081;-84
2022/12/19 13:22:18;;;;;;;132.07;63.87;;;-1.80;99.90;;;;;;10324922;28;20034;-83
2022/12/19 13:27:18;;;;;;;139.33;66.90;;;-1.90;99.90;;;;;;10323543;28;20723;-85
2022/12/19 13:32:20;;;;;;;130.67;62.70;;;-2.00;99.90;;;;;;10310116;28;20045;-84
2022/12/19 13:37:42;;;;;;;152.10;68.10;;;-2.10;99.90;;;;;;10310188;28;20027;-86
2022/12/19 13:48:30;;;;;;;292.90;110.47;;;-2.30;99.90;;;;;;10285021;28;20030;-85
2022/12/19 13:53:31;;;;;;;;;;;-2.50;99.90;;;;;;10286388;28;20034;-85
2022/12/19 13:58:33;;;;;;;125.97;58.60;;;-2.60;99.90;;;;;;10312386;28;19917;-86
2022/12/19 14:03:41;;;;;;;152.07;66.43;;;-2.80;99.90;;;;;;10343420;28;20576;-88
2022/12/19 14:08:44;;;;;;;133.47;64.47;;;-2.90;99.90;;;;;;10303008;28;20030;-86
2022/12/19 14:19:24;;;;;;;120.17;53.40;;;-3.20;99.90;;;;;;10322808;28;20046;-86
2022/12/19 14:24:25;;;;;;;138.15;63.05;;;-3.30;99.90;;;;;;10319689;28;20093;-91
2022/12/19 14:29:39;;;;;;;125.93;59.10;;;-3.40;99.90;;;;;;10322017;28;20100;-87
2022/12/19 14:34:41;;;;;;;147.83;68.43;;;-3.50;99.90;;;;;;10332521;28;20085;-86
2022/12/19 14:39:41;;;;;;;197.60;88.93;;;-3.70;99.90;;;;;;10310277;28;20490;-86
2022/12/19 14:44:51;;;;;;;308.37;133.97;;;-3.80;99.90;;;;;;10322650;28;20056;-85
2022/12/19 14:49:52;;;;;;;201.97;84.80;;;-3.90;99.90;;;;;;10319758;28;20729;-87
2022/12/19 14:55:13;;;;;;;231.43;105.80;;;-4.00;99.90;;;;;;10311804;28;20117;-85
2022/12/19 15:00:27;;;;;;;211.07;97.93;;;-4.10;99.90;;;;;;10321224;28;20514;-86
2022/12/19 15:05:28;;;;;;;238.50;104.07;;;-4.30;99.90;;;;;;10317690;28;20613;-86
2022/12/19 15:10:34;;;;;;;218.83;103.47;;;-4.50;99.90;;;;;;10312503;28;20406;-86
2022/12/19 15:15:49;;;;;;;255.90;121.13;;;-4.70;99.90;;;;;;10317568;28;20057;-84
2022/12/19 15:20:51;;;;;;;379.30;184.57;;;-4.80;99.90;;;;;;10305897;28;20073;-86
2022/12/19 15:25:53;;;;;;;287.10;131.40;;;-4.90;99.90;;;;;;10340024;28;20044;-89
2022/12/19 15:31:05;;;;;;;355.13;165.97;;;-4.90;99.90;;;;;;10310874;28;20034;-85
2022/12/19 15:36:08;;;;;;;260.13;121.43;;;-5.00;99.90;;;;;;10310415;28;20034;-86
2022/12/19 15:41:12;;;;;;;226.43;105.77;;;-5.00;99.90;;;;;;10320447;28;20062;-84
2022/12/19 15:46:13;;;;;;;219.70;100.37;;;-5.00;99.90;;;;;;10319285;28;20035;-83
2022/12/19 15:51:15;;;;;;;208.37;102.10;;;-5.00;99.90;;;;;;10334840;28;20394;-84
2022/12/19 16:08:15;;;;;;;202.53;92.57;;;-4.90;99.90;;;;;;10319995;28;20030;-82
2022/12/19 16:13:27;;;;;;;405.97;167.40;;;-4.80;99.90;;;;;;10319626;28;20856;-84
2022/12/19 16:18:28;;;;;;;337.03;136.67;;;-4.70;99.90;;;;;;10319121;28;20069;-85
2022/12/19 16:23:28;;;;;;;422.30;172.53;;;-4.60;99.90;;;;;;10318936;28;20096;-82
2022/12/19 16:28:32;;;;;;;365.63;141.93;;;-4.50;99.90;;;;;;10318569;28;20026;-83
2022/12/19 16:33:33;;;;;;;301.43;123.87;;;-4.50;99.90;;;;;;10317700;28;20061;-82
2022/12/19 16:38:34;;;;;;;278.57;118.07;;;-4.60;99.90;;;;;;10325172;28;20054;-83
2022/12/19 16:43:38;;;;;;;261.30;120.40;;;-4.50;99.90;;;;;;10325814;28;20590;-82
2022/12/19 16:48:39;;;;;;;202.07;90.80;;;-4.60;99.90;;;;;;10324693;28;20034;-84
2022/12/19 16:53:40;;;;;;;260.50;99.80;;;-4.60;99.90;;;;;;10322428;28;20044;-82
2022/12/19 16:58:40;;;;;;;246.50;104.07;;;-4.60;99.90;;;;;;10309927;28;20045;-83
2022/12/19 17:03:43;;;;;;;224.03;98.50;;;-4.70;99.90;;;;;;10324445;28;20057;-84
2022/12/19 17:08:45;;;;;;;217.53;92.27;;;-4.90;99.90;;;;;;10325076;28;20032;-83
2022/12/19 17:13:52;;;;;;;286.57;116.50;;;-5.00;99.90;;;;;;10313517;28;20030;-84
2022/12/19 17:18:53;;;;;;;226.63;102.47;;;-5.10;99.90;;;;;;10324882;28;20030;-84
2022/12/19 17:23:53;;;;;;;241.83;111.00;;;-5.10;99.90;;;;;;10325050;28;20666;-82
2022/12/19 17:28:54;;;;;;;193.13;92.43;;;-5.00;99.90;;;;;;10324343;28;20038;-83
2022/12/19 17:33:56;;;;;;;192.83;90.33;;;-4.80;99.90;;;;;;10324012;28;20035;-83
2022/12/19 17:38:57;;;;;;;264.37;108.63;;;-4.60;99.90;;;;;;10324598;28;20062;-83
2022/12/19 17:43:58;;;;;;;293.17;120.40;;;-4.30;99.90;;;;;;10324462;28;20038;-83
2022/12/19 17:48:58;;;;;;;393.70;147.60;;;-4.10;99.90;;;;;;10322085;28;20030;-83
2022/12/19 17:53:59;;;;;;;280.57;125.77;;;-3.90;99.90;;;;;;10325031;28;20026;-84
2022/12/19 17:58:59;;;;;;;376.07;144.43;;;-3.70;99.90;;;;;;10323398;28;20153;-83
2022/12/19 18:04:00;;;;;;;394.83;148.97;;;-3.60;99.90;;;;;;10322798;28;20066;-83
2022/12/19 18:09:02;;;;;;;459.00;189.97;;;-3.40;99.90;;;;;;10321080;28;20062;-84
2022/12/19 18:14:02;;;;;;;276.10;112.77;;;-3.30;99.90;;;;;;10323458;28;20026;-84
2022/12/19 18:19:04;;;;;;;109.57;42.90;;;-3.10;99.90;;;;;;10320338;28;20041;-83
2022/12/19 18:24:09;;;;;;;120.43;46.30;;;-2.90;99.90;;;;;;10320735;28;20050;-85
2022/12/19 18:29:10;;;;;;;111.90;42.88;;;-2.60;99.90;;;;;;10307879;28;20500;-84
2022/12/19 18:34:19;;;;;;;99.60;38.50;;;-2.30;99.90;;;;;;10315054;28;20029;-84
2022/12/19 18:39:23;;;;;;;88.93;37.00;;;-2.20;99.90;;;;;;10314214;28;20050;-84
2022/12/19 18:44:23;;;;;;;97.03;39.47;;;-2.00;99.90;;;;;;10352604;28;20046;-83
2022/12/19 18:49:26;;;;;;;109.00;43.13;;;-2.00;99.90;;;;;;10315343;28;20044;-83
2022/12/19 18:54:26;;;;;;;82.73;34.70;;;-1.90;99.90;;;;;;10321954;28;20073;-84
2022/12/19 18:59:27;;;;;;;95.33;35.93;;;-1.80;99.90;;;;;;10351502;28;20561;-83
2022/12/19 19:04:28;;;;;;;120.70;45.07;;;-1.80;99.90;;;;;;10317516;28;20069;-84
2022/12/19 19:09:28;;;;;;;118.67;42.93;;;-1.70;99.90;;;;;;10319722;28;20034;-84
2022/12/19 19:14:29;;;;;;;79.27;30.80;;;-1.60;99.90;;;;;;10320093;28;20113;-84
2022/12/19 19:19:30;;;;;;;85.50;30.67;;;-1.50;99.90;;;;;;10319346;28;20460;-85
2022/12/19 19:24:30;;;;;;;79.23;30.13;;;-1.50;99.90;;;;;;10320123;28;20038;-84
2022/12/19 19:29:31;;;;;;;67.47;27.77;;;-1.40;99.90;;;;;;10317895;28;20037;-84
2022/12/19 19:34:36;;;;;;;69.33;26.83;;;-1.30;99.90;;;;;;10318819;28;20165;-83
2022/12/19 19:39:36;;;;;;;67.50;27.10;;;-1.30;99.90;;;;;;10313786;28;20502;-83
2022/12/19 19:44:37;;;;;;;67.13;27.73;;;-1.30;99.90;;;;;;10336676;28;20042;-83
2022/12/19 19:49:37;;;;;;;66.10;27.10;;;-1.20;99.90;;;;;;10317844;28;20022;-84
2022/12/19 19:54:38;;;;;;;66.37;26.90;;;-1.20;99.90;;;;;;10319545;28;20077;-83
2022/12/19 19:59:38;;;;;;;62.73;25.63;;;-1.10;99.90;;;;;;10317230;28;20604;-83
2022/12/19 20:04:39;;;;;;;66.43;28.33;;;-1.10;99.90;;;;;;10319062;28;20076;-83
2022/12/19 20:09:40;;;;;;;68.67;27.70;;;-1.00;99.90;;;;;;10347110;28;20039;-84
2022/12/19 20:14:40;;;;;;;62.60;27.90;;;-1.00;99.90;;;;;;10316991;28;20088;-83
2022/12/19 20:19:41;;;;;;;73.00;29.53;;;-0.90;99.90;;;;;;10314744;28;20034;-82
2022/12/19 20:24:42;;;;;;;63.17;26.97;;;-0.80;99.90;;;;;;10312268;28;20592;-83
2022/12/19 20:29:42;;;;;;;57.67;23.93;;;-0.80;99.90;;;;;;10314397;28;20030;-84
2022/12/19 20:34:43;;;;;;;62.93;26.50;;;-0.80;99.90;;;;;;10316483;28;20088;-82
2022/12/19 20:39:43;;;;;;;58.07;25.77;;;-0.70;99.90;;;;;;10303810;28;20134;-87
2022/12/19 20:44:44;;;;;;;63.00;28.43;;;-0.70;99.90;;;;;;10335933;28;20026;-86
2022/12/19 20:49:45;;;;;;;61.50;25.90;;;-0.70;99.90;;;;;;10346282;28;20030;-85
2022/12/19 20:54:45;;;;;;;59.03;25.57;;;-0.70;99.90;;;;;;10309759;28;20061;-85
2022/12/19 20:59:46;;;;;;;65.17;27.07;;;-0.70;99.90;;;;;;10315134;28;20054;-85
2022/12/19 21:04:46;;;;;;;67.77;27.43;;;-0.70;99.90;;;;;;10313585;28;20465;-85
2022/12/19 21:09:49;;;;;;;66.30;25.43;;;-0.70;99.90;;;;;;10344709;28;20046;-85
2022/12/19 21:14:49;;;;;;;68.33;26.27;;;-0.70;99.90;;;;;;10309360;28;20058;-85
2022/12/19 21:19:50;;;;;;;61.53;23.83;;;-0.70;99.90;;;;;;10316477;28;20130;-85
2022/12/19 21:24:50;;;;;;;55.57;21.97;;;-0.70;99.90;;;;;;10306001;28;20054;-86
2022/12/19 21:29:51;;;;;;;53.67;23.77;;;-0.60;99.90;;;;;;10325118;28;20049;-85
2022/12/19 21:34:53;;;;;;;51.17;22.47;;;-0.60;99.90;;;;;;10324217;28;20043;-85
2022/12/19 21:39:53;;;;;;;56.73;20.47;;;-0.60;99.90;;;;;;10347188;28;20070;-85
2022/12/19 21:44:54;;;;;;;51.03;21.40;;;-0.60;99.90;;;;;;10309573;28;20521;-84
2022/12/19 21:49:54;;;;;;;53.00;21.93;;;-0.60;99.90;;;;;;10322486;28;20038;-87
2022/12/19 21:54:55;;;;;;;52.73;21.27;;;-0.60;99.90;;;;;;10322148;28;20040;-85
2022/12/19 21:59:55;;;;;;;55.80;23.70;;;-0.60;99.90;;;;;;10312465;28;20505;-86
2022/12/19 22:04:56;;;;;;;63.73;25.87;;;-0.50;99.90;;;;;;10322321;28;20125;-85
2022/12/19 22:09:56;;;;;;;59.43;25.53;;;-0.50;99.90;;;;;;10348882;28;20034;-86
2022/12/19 22:14:57;;;;;;;62.57;26.93;;;-0.50;99.90;;;;;;10315626;28;20073;-85
2022/12/19 22:19:57;;;;;;;61.83;24.17;;;-0.50;99.90;;;;;;10313692;28;20180;-85
2022/12/19 22:24:58;;;;;;;58.10;22.67;;;-0.50;99.90;;;;;;10351645;28;20772;-86
2022/12/19 22:29:58;;;;;;;60.43;25.10;;;-0.50;99.90;;;;;;10323076;28;20038;-84
2022/12/19 22:34:59;;;;;;;57.10;25.40;;;-0.50;99.90;;;;;;10320435;28;20026;-85
2022/12/19 22:40:02;;;;;;;57.57;24.53;;;-0.40;99.90;;;;;;10312131;28;20105;-85
2022/12/19 22:45:03;;;;;;;55.47;24.50;;;-0.40;99.90;;;;;;10318353;28;20038;-85
2022/12/19 22:50:05;;;;;;;57.17;23.23;;;-0.40;99.90;;;;;;10317189;28;20034;-85
2022/12/19 22:55:07;;;;;;;54.27;22.53;;;-0.30;99.90;;;;;;10353136;28;20050;-85
2022/12/19 23:00:12;;;;;;;57.07;23.47;;;-0.30;99.90;;;;;;10321364;28;20034;-84
2022/12/19 23:05:13;;;;;;;54.88;19.30;;;-0.30;99.90;;;;;;10316642;28;20451;-85
2022/12/19 23:10:13;;;;;;;54.20;22.20;;;-0.20;99.90;;;;;;10321318;28;20034;-86
2022/12/19 23:15:14;;;;;;;56.13;23.77;;;-0.20;99.90;;;;;;10320889;28;20160;-85
2022/12/19 23:20:14;;;;;;;53.80;22.50;;;-0.20;99.90;;;;;;10317098;28;20026;-85
2022/12/19 23:25:15;;;;;;;52.73;21.93;;;-0.20;99.90;;;;;;10318429;28;20633;-85
2022/12/19 23:30:15;;;;;;;55.27;22.97;;;-0.20;99.90;;;;;;10318343;28;20113;-84
2022/12/19 23:35:16;;;;;;;48.37;20.63;;;-0.20;99.90;;;;;;10318781;28;20566;-85
2022/12/19 23:40:17;;;;;;;51.00;22.57;;;-0.10;99.90;;;;;;10314946;28;20728;-84
2022/12/19 23:45:18;;;;;;;54.50;22.77;;;-0.10;99.90;;;;;;10318514;28;20471;-84
2022/12/19 23:50:18;;;;;;;52.97;23.10;;;-0.10;99.90;;;;;;10306368;28;20080;-85
2022/12/19 23:55:19;;;;;;;46.57;19.60;;;-0.10;99.90;;;;;;10318153;28;20037;-85
